createdAt,value
2017-10-12T00:01:24.533Z,4.00
2017-10-12T00:03:54.320Z,4.23
2017-10-12T00:06:24.171Z,4.03
2017-10-12T00:08:53.969Z,4.87
2017-10-12T00:11:23.752Z,3.97
2017-10-12T00:13:53.616Z,3.97
2017-10-12T00:16:23.962Z,3.73
2017-10-12T00:18:53.803Z,4.60
2017-10-12T00:21:23.595Z,4.60
2017-10-12T00:23:53.432Z,4.47
2017-10-12T00:26:23.958Z,4.40
2017-10-12T00:28:53.760Z,3.87
2017-10-12T00:31:23.550Z,3.67
2017-10-12T00:33:53.341Z,3.60
2017-10-12T00:36:23.159Z,3.03
2017-10-12T00:38:52.967Z,4.20
2017-10-12T00:41:22.744Z,3.87
2017-10-12T00:43:52.576Z,4.00
2017-10-12T00:46:22.380Z,3.70
2017-10-12T00:48:52.192Z,3.17
2017-10-12T00:51:22.009Z,4.10
2017-10-12T00:53:52.086Z,3.20
2017-10-12T00:56:21.895Z,3.37
2017-10-12T00:58:51.733Z,3.10
2017-10-12T01:01:21.529Z,3.80
2017-10-12T01:03:51.366Z,2.73
2017-10-12T01:06:21.182Z,3.13
2017-10-12T01:08:50.984Z,3.30
2017-10-12T01:11:20.828Z,3.20
2017-10-12T01:13:50.640Z,3.07
2017-10-12T01:16:20.467Z,3.47
2017-10-12T01:18:50.338Z,3.03
2017-10-12T01:21:20.124Z,2.87
2017-10-12T01:23:49.951Z,3.13
2017-10-12T01:26:19.737Z,3.20
2017-10-12T01:28:49.559Z,3.43
2017-10-12T01:31:19.351Z,3.20
2017-10-12T01:33:49.144Z,3.97
2017-10-12T01:36:18.957Z,3.27
2017-10-12T01:38:49.108Z,4.37
2017-10-12T01:41:18.919Z,4.00
2017-10-12T01:43:49.053Z,3.87
2017-10-12T01:46:18.844Z,3.63
2017-10-12T01:48:54.420Z,3.53
2017-10-12T01:51:24.184Z,4.40
2017-10-12T01:53:54.025Z,3.67
2017-10-12T01:56:23.860Z,3.40
2017-10-12T01:58:53.684Z,4.03
2017-10-12T02:01:23.514Z,3.50
2017-10-12T02:03:53.614Z,3.87
2017-10-12T02:06:23.426Z,3.90
2017-10-12T02:08:53.288Z,4.40
2017-10-12T02:11:23.115Z,3.40
2017-10-12T02:13:52.904Z,4.20
2017-10-12T02:16:22.822Z,3.93
2017-10-12T02:18:52.658Z,3.43
2017-10-12T02:21:22.457Z,3.80
2017-10-12T02:23:52.256Z,3.50
2017-10-12T02:26:22.064Z,4.50
2017-10-12T02:28:51.881Z,4.20
2017-10-12T02:31:22.517Z,4.17
2017-10-12T02:33:52.301Z,3.70
2017-10-12T02:36:22.092Z,3.77
2017-10-12T02:38:51.897Z,4.13
2017-10-12T02:41:21.703Z,4.13
2017-10-12T02:43:51.494Z,4.17
2017-10-12T02:46:21.286Z,4.87
2017-10-12T02:48:51.084Z,4.20
2017-10-12T02:51:21.084Z,3.83
2017-10-12T02:53:50.876Z,4.30
2017-10-12T02:56:20.679Z,4.40
2017-10-12T02:58:50.478Z,4.50
2017-10-12T03:01:20.278Z,4.30
2017-10-12T03:03:50.081Z,3.83
2017-10-12T03:06:19.895Z,4.27
2017-10-12T03:08:50.317Z,4.23
2017-10-12T03:11:20.186Z,3.70
2017-10-12T03:13:50.790Z,3.97
2017-10-12T03:16:20.646Z,3.40
2017-10-12T03:18:50.411Z,3.50
2017-10-12T03:21:20.228Z,3.70
2017-10-12T03:23:50.062Z,3.90
2017-10-12T03:26:20.153Z,3.53
2017-10-12T03:28:49.976Z,3.23
2017-10-12T03:31:19.772Z,4.60
2017-10-12T03:33:49.609Z,3.17
2017-10-12T03:36:19.418Z,3.63
2017-10-12T03:38:49.212Z,3.80
2017-10-12T03:41:19.008Z,3.57
2017-10-12T03:43:48.805Z,3.77
2017-10-12T03:46:18.623Z,3.97
2017-10-12T03:48:49.225Z,3.50
2017-10-12T03:51:19.102Z,3.80
2017-10-12T03:53:49.464Z,3.63
2017-10-12T03:56:19.249Z,3.97
2017-10-12T03:58:49.049Z,3.90
2017-10-12T04:01:18.880Z,3.83
2017-10-12T04:03:48.697Z,3.63
2017-10-12T04:06:18.536Z,3.23
2017-10-12T04:08:48.326Z,3.40
2017-10-12T04:11:18.161Z,3.97
2017-10-12T04:13:47.992Z,3.70
2017-10-12T04:16:17.797Z,4.33
2017-10-12T04:18:47.617Z,4.00
2017-10-12T04:21:17.413Z,3.70
2017-10-12T04:23:47.245Z,4.17
2017-10-12T04:26:17.052Z,2.80
2017-10-12T04:28:46.913Z,3.60
2017-10-12T04:31:16.706Z,2.80
2017-10-12T04:33:46.529Z,4.30
2017-10-12T04:36:16.314Z,4.17
2017-10-12T04:38:46.098Z,4.03
2017-10-12T04:41:15.960Z,4.07
2017-10-12T04:43:45.982Z,3.57
2017-10-12T04:46:15.793Z,3.77
2017-10-12T04:48:45.616Z,3.70
2017-10-12T04:51:15.414Z,3.87
2017-10-12T04:53:45.247Z,4.20
2017-10-12T04:56:15.375Z,3.87
2017-10-12T04:58:45.162Z,4.37
2017-10-12T05:01:17.119Z,5.23
2017-10-12T05:03:47.895Z,3.70
2017-10-12T05:06:17.705Z,4.13
2017-10-12T05:08:47.519Z,4.17
2017-10-12T05:11:18.667Z,3.90
2017-10-12T05:13:48.468Z,3.30
2017-10-12T05:16:18.330Z,3.40
2017-10-12T05:18:48.117Z,3.20
2017-10-12T05:21:17.936Z,4.50
2017-10-12T05:23:48.522Z,3.57
2017-10-12T05:26:18.675Z,3.73
2017-10-12T05:28:48.464Z,3.67
2017-10-12T05:31:18.255Z,4.10
2017-10-12T05:33:48.098Z,4.00
2017-10-12T05:36:17.876Z,3.80
2017-10-12T05:38:47.682Z,4.60
2017-10-12T05:41:17.730Z,4.17
2017-10-12T05:43:47.592Z,4.27
2017-10-12T05:46:17.393Z,3.80
2017-10-12T05:48:47.202Z,4.37
2017-10-12T05:51:17.016Z,3.70
2017-10-12T05:53:46.909Z,4.07
2017-10-12T05:56:16.701Z,3.73
2017-10-12T05:58:46.529Z,4.23
2017-10-12T06:01:17.234Z,4.80
2017-10-12T06:03:47.044Z,4.00
2017-10-12T06:06:16.878Z,3.60
2017-10-12T06:08:46.682Z,4.10
2017-10-12T06:11:16.483Z,5.20
2017-10-12T06:13:46.293Z,4.20
2017-10-12T06:16:16.084Z,4.60
2017-10-12T06:18:46.733Z,4.07
2017-10-12T06:21:16.520Z,4.10
2017-10-12T06:23:46.377Z,3.57
2017-10-12T06:26:16.218Z,5.10
2017-10-12T06:28:46.878Z,5.43
2017-10-12T06:31:16.733Z,3.93
2017-10-12T06:33:46.627Z,4.00
2017-10-12T06:36:16.479Z,4.70
2017-10-12T06:38:46.261Z,4.50
2017-10-12T06:41:16.061Z,4.03
2017-10-12T06:43:45.912Z,3.80
2017-10-12T06:46:15.723Z,3.70
2017-10-12T06:48:45.533Z,3.97
2017-10-12T06:51:15.392Z,4.07
2017-10-12T06:53:45.215Z,4.30
2017-10-12T06:56:15.044Z,4.33
2017-10-12T06:58:44.840Z,3.97
2017-10-12T07:01:14.628Z,4.23
2017-10-12T07:03:44.444Z,3.77
2017-10-12T07:06:14.261Z,3.20
2017-10-12T07:08:44.067Z,3.53
2017-10-12T07:11:13.855Z,3.23
2017-10-12T07:13:43.655Z,3.80
2017-10-12T07:16:13.449Z,3.67
2017-10-12T07:18:43.279Z,3.30
2017-10-12T07:21:13.065Z,3.27
2017-10-12T07:23:42.913Z,2.60
2017-10-12T07:26:12.713Z,3.07
2017-10-12T07:28:42.521Z,3.17
2017-10-12T07:31:12.614Z,2.77
2017-10-12T07:33:42.479Z,3.30
2017-10-12T07:36:12.289Z,3.33
2017-10-12T07:38:42.105Z,3.07
2017-10-12T07:41:11.929Z,3.00
2017-10-12T07:43:41.782Z,2.70
2017-10-12T07:46:11.583Z,2.40
2017-10-12T07:48:41.465Z,2.60
2017-10-12T07:51:11.262Z,2.67
2017-10-12T07:53:41.122Z,2.93
2017-10-12T07:56:10.905Z,2.40
2017-10-12T07:58:40.699Z,2.57
2017-10-12T08:01:10.521Z,2.50
2017-10-12T08:03:40.334Z,3.00
2017-10-12T08:06:10.214Z,2.20
2017-10-12T08:08:40.072Z,2.70
2017-10-12T08:11:09.885Z,3.07
2017-10-12T08:13:40.642Z,2.70
2017-10-12T08:16:10.471Z,2.60
2017-10-12T08:18:40.358Z,2.70
2017-10-12T08:21:10.156Z,2.10
2017-10-12T08:23:40.021Z,2.87
2017-10-12T08:26:10.315Z,3.57
2017-10-12T08:28:40.473Z,2.20
2017-10-12T08:31:10.866Z,2.87
2017-10-12T08:33:41.035Z,2.43
2017-10-12T08:36:10.844Z,2.63
2017-10-12T08:38:41.351Z,2.50
2017-10-12T08:41:11.159Z,2.70
2017-10-12T08:43:41.220Z,2.73
2017-10-12T08:46:11.081Z,2.80
2017-10-12T08:48:41.173Z,2.50
2017-10-12T08:51:12.872Z,3.87
2017-10-12T08:53:42.985Z,2.57
2017-10-12T08:56:12.791Z,3.20
2017-10-12T08:58:42.588Z,2.40
2017-10-12T09:01:13.169Z,2.70
2017-10-12T09:03:42.957Z,2.60
2017-10-12T09:06:12.777Z,2.47
2017-10-12T09:08:42.580Z,2.20
2017-10-12T09:11:12.397Z,2.60
2017-10-12T09:13:42.206Z,2.90
2017-10-12T09:16:12.039Z,2.47
2017-10-12T09:18:42.010Z,2.53
2017-10-12T09:21:12.674Z,2.20
2017-10-12T09:23:43.152Z,2.80
2017-10-12T09:26:28.580Z,3.17
2017-10-12T09:28:58.381Z,2.43
2017-10-12T09:31:28.200Z,2.30
2017-10-12T09:33:58.035Z,2.80
2017-10-12T09:36:28.745Z,2.83
2017-10-12T09:38:58.584Z,2.60
2017-10-12T09:41:28.418Z,2.80
2017-10-12T09:43:58.210Z,2.33
2017-10-12T09:46:28.015Z,3.27
2017-10-12T09:48:57.874Z,3.70
2017-10-12T09:51:27.699Z,3.00
2017-10-12T09:53:57.486Z,2.67
2017-10-12T09:56:27.308Z,3.30
2017-10-12T09:58:57.105Z,2.90
2017-10-12T10:01:26.937Z,2.27
2017-10-12T10:03:56.757Z,2.20
2017-10-12T10:06:26.592Z,3.13
2017-10-12T10:08:56.469Z,1.77
2017-10-12T10:11:26.594Z,2.27
2017-10-12T10:13:56.705Z,2.20
2017-10-12T10:16:26.886Z,2.47
2017-10-12T10:18:56.677Z,2.57
2017-10-12T10:21:27.054Z,2.50
2017-10-12T10:23:56.866Z,2.27
2017-10-12T10:26:26.697Z,2.10
2017-10-12T10:28:56.493Z,2.10
2017-10-12T10:31:26.300Z,2.50
2017-10-12T10:33:56.181Z,2.00
2017-10-12T10:36:26.576Z,3.53
2017-10-12T10:38:56.398Z,2.03
2017-10-12T10:41:26.228Z,2.50
2017-10-12T10:43:56.043Z,1.80
2017-10-12T10:46:25.851Z,1.80
2017-10-12T10:48:56.536Z,2.37
2017-10-12T10:51:26.348Z,2.63
2017-10-12T10:53:56.146Z,2.00
2017-10-12T10:56:25.974Z,2.42
2017-10-12T10:58:55.772Z,1.73
2017-10-12T11:01:25.641Z,2.17
2017-10-12T11:03:55.429Z,1.90
2017-10-12T11:06:25.535Z,2.27
2017-10-12T11:08:55.366Z,2.22
2017-10-12T11:11:25.161Z,2.30
2017-10-12T11:13:55.514Z,2.27
2017-10-12T11:16:25.926Z,2.27
2017-10-12T11:18:55.753Z,2.17
2017-10-12T11:21:26.461Z,2.30
2017-10-12T11:23:56.293Z,2.47
2017-10-12T11:26:26.124Z,1.50
2017-10-12T11:28:55.961Z,2.47
2017-10-12T11:31:25.751Z,1.70
2017-10-12T11:33:55.938Z,2.10
2017-10-12T11:36:25.720Z,1.77
2017-10-12T11:38:55.559Z,2.70
2017-10-12T11:41:25.692Z,2.13
2017-10-12T11:43:55.903Z,2.27
2017-10-12T11:46:25.634Z,2.37
2017-10-12T11:48:55.752Z,2.37
2017-10-12T11:51:24.678Z,3.10
2017-10-12T11:53:54.606Z,1.93
2017-10-12T11:56:22.773Z,2.10
2017-10-12T11:58:51.084Z,2.23
2017-10-12T12:01:19.353Z,2.20
2017-10-12T12:03:49.316Z,2.00
2017-10-12T12:06:17.461Z,1.43
2017-10-12T12:08:45.743Z,2.07
2017-10-12T12:11:14.100Z,2.00
2017-10-12T12:13:44.737Z,2.20
2017-10-12T12:16:12.969Z,1.90
2017-10-12T12:18:42.910Z,1.43
2017-10-12T12:21:12.241Z,2.40
2017-10-12T12:23:41.714Z,1.97
2017-10-12T12:26:11.718Z,2.73
2017-10-12T12:28:41.555Z,2.40
2017-10-12T12:31:11.437Z,2.10
2017-10-12T12:33:41.281Z,1.70
2017-10-12T12:36:11.078Z,2.60
2017-10-12T12:38:40.907Z,2.30
2017-10-12T12:41:10.698Z,1.93
2017-10-12T12:43:40.850Z,2.20
2017-10-12T12:46:10.690Z,2.07
2017-10-12T12:48:40.641Z,2.90
2017-10-12T12:51:11.428Z,1.97
2017-10-12T12:53:41.270Z,1.70
2017-10-12T12:56:11.082Z,2.00
2017-10-12T12:58:40.864Z,1.60
2017-10-12T13:01:10.673Z,2.43
2017-10-12T13:03:40.483Z,3.00
2017-10-12T13:06:10.288Z,2.77
2017-10-12T13:08:40.098Z,2.00
2017-10-12T13:11:09.925Z,2.40
2017-10-12T13:13:40.781Z,2.00
2017-10-12T13:16:10.583Z,2.57
2017-10-12T13:18:40.399Z,2.50
2017-10-12T13:21:10.291Z,2.30
2017-10-12T13:23:40.124Z,1.60
2017-10-12T13:26:10.624Z,2.40
2017-10-12T13:28:40.861Z,1.63
2017-10-12T13:31:10.680Z,2.40
2017-10-12T13:33:40.497Z,2.40
2017-10-12T13:36:10.351Z,3.30
2017-10-12T13:38:40.267Z,2.60
2017-10-12T13:41:10.921Z,2.67
2017-10-12T13:43:40.770Z,3.00
2017-10-12T13:46:11.403Z,2.60
2017-10-12T13:48:41.478Z,2.77
2017-10-12T13:51:10.877Z,2.03
2017-10-12T13:53:40.918Z,2.80
2017-10-12T13:56:09.165Z,2.37
2017-10-12T13:58:39.325Z,2.60
2017-10-12T14:01:08.396Z,2.10
2017-10-12T14:03:37.528Z,2.30
2017-10-12T14:06:07.472Z,2.17
2017-10-12T14:08:37.286Z,3.07
2017-10-12T14:11:07.140Z,3.30
2017-10-12T14:13:36.928Z,2.40
2017-10-12T14:16:06.746Z,2.40
2017-10-12T14:18:36.564Z,3.50
2017-10-12T14:21:06.386Z,4.10
2017-10-12T14:23:36.224Z,3.17
2017-10-12T14:26:06.050Z,3.30
2017-10-12T14:28:35.829Z,3.07
2017-10-12T14:31:06.019Z,3.07
2017-10-12T14:33:35.834Z,2.53
2017-10-12T14:36:05.641Z,2.70
2017-10-12T14:38:35.499Z,3.70
2017-10-12T14:41:05.305Z,2.87
2017-10-12T14:43:35.119Z,2.20
2017-10-12T14:46:05.549Z,2.80
2017-10-12T14:48:35.413Z,3.00
2017-10-12T14:51:05.191Z,2.00
2017-10-12T14:53:34.993Z,2.20
2017-10-12T14:56:05.726Z,2.17
2017-10-12T14:58:35.539Z,3.60
2017-10-12T15:01:05.338Z,2.80
2017-10-12T15:03:35.168Z,2.40
2017-10-12T15:06:04.960Z,1.90
2017-10-12T15:08:34.777Z,2.60
2017-10-12T15:11:05.628Z,2.43
2017-10-12T15:13:37.341Z,2.63
2017-10-12T15:16:07.698Z,2.47
2017-10-12T15:18:37.513Z,1.93
2017-10-12T15:21:07.329Z,3.10
2017-10-12T15:23:37.143Z,3.53
2017-10-12T15:26:06.949Z,2.80
2017-10-12T15:28:36.781Z,3.00
2017-10-12T15:31:06.616Z,2.63
2017-10-12T15:33:36.416Z,2.53
2017-10-12T15:36:07.125Z,2.70
2017-10-12T15:38:37.373Z,2.70
2017-10-12T15:41:08.149Z,3.07
2017-10-12T15:43:37.967Z,2.90
2017-10-12T15:46:07.773Z,2.93
2017-10-12T15:48:37.949Z,3.13
2017-10-12T15:51:07.745Z,2.40
2017-10-12T15:53:37.570Z,3.13
2017-10-12T15:56:07.769Z,2.60
2017-10-12T15:58:37.642Z,2.60
2017-10-12T16:01:07.455Z,3.00
2017-10-12T16:03:38.371Z,3.00
2017-10-12T16:06:08.204Z,2.80
2017-10-12T16:08:38.015Z,3.63
2017-10-12T16:11:07.892Z,3.57
2017-10-12T16:13:37.705Z,2.47
2017-10-12T16:16:07.531Z,2.17
2017-10-12T16:18:37.351Z,3.10
2017-10-12T16:21:07.172Z,2.27
2017-10-12T16:23:36.973Z,2.20
2017-10-12T16:26:06.789Z,2.60
2017-10-12T16:28:36.621Z,3.90
2017-10-12T16:31:07.349Z,3.20
2017-10-12T16:33:39.997Z,2.50
2017-10-12T16:36:09.825Z,4.00
2017-10-12T16:38:39.632Z,3.07
2017-10-12T16:41:09.464Z,3.47
2017-10-12T16:43:39.298Z,2.40
2017-10-12T16:46:09.102Z,2.80
2017-10-12T16:48:38.934Z,3.10
2017-10-12T16:51:08.740Z,3.50
2017-10-12T16:53:39.030Z,3.17
2017-10-12T16:56:08.865Z,2.80
2017-10-12T16:58:38.686Z,3.10
2017-10-12T17:01:08.549Z,2.77
2017-10-12T17:03:38.815Z,2.40
2017-10-12T17:06:08.674Z,2.97
2017-10-12T17:08:38.539Z,2.90
2017-10-12T17:11:09.195Z,3.20
2017-10-12T17:13:39.107Z,2.93
2017-10-12T17:16:08.945Z,3.47
2017-10-12T17:18:39.350Z,2.57
2017-10-12T17:21:09.290Z,2.83
2017-10-12T17:26:10.241Z,2.87
2017-10-12T17:28:40.195Z,3.17
2017-10-12T17:31:10.220Z,2.67
2017-10-12T17:33:40.494Z,2.77
2017-10-12T17:36:10.610Z,2.77
2017-10-12T17:38:41.384Z,3.03
2017-10-12T17:41:11.680Z,4.10
2017-10-12T17:43:41.781Z,2.83
2017-10-12T17:46:11.944Z,3.10
2017-10-12T17:48:43.584Z,4.00
2017-10-12T17:51:13.912Z,3.63
2017-10-12T17:53:44.240Z,3.70
2017-10-12T17:56:14.365Z,3.10
2017-10-12T17:58:45.142Z,3.50
2017-10-12T18:01:15.840Z,4.13
2017-10-12T18:03:46.272Z,3.70
2017-10-12T18:06:17.314Z,3.67
2017-10-12T18:08:47.494Z,2.70
2017-10-12T18:11:17.971Z,3.43
2017-10-12T18:13:48.695Z,3.53
2017-10-12T18:16:18.626Z,4.03
2017-10-12T18:18:49.160Z,3.50
2017-10-12T18:21:19.103Z,4.30
2017-10-12T18:23:49.035Z,3.20
2017-10-12T18:26:19.235Z,3.37
2017-10-12T18:28:49.347Z,2.43
2017-10-12T18:31:19.738Z,3.40
2017-10-12T18:33:49.736Z,2.70
2017-10-12T18:36:20.057Z,3.73
2017-10-12T18:38:50.354Z,3.20
2017-10-12T18:41:21.045Z,3.60
2017-10-12T18:43:50.922Z,2.50
2017-10-12T18:46:21.717Z,3.00
2017-10-12T18:48:51.679Z,3.23
2017-10-12T18:51:21.652Z,4.10
2017-10-12T18:53:51.446Z,3.93
2017-10-12T18:56:21.901Z,4.00
2017-10-12T18:58:51.719Z,6.00
2017-10-12T19:01:21.551Z,5.00
2017-10-12T19:03:52.312Z,3.83
2017-10-12T19:06:22.885Z,4.37
2017-10-12T19:08:52.685Z,4.50
2017-10-12T19:11:23.254Z,3.80
2017-10-12T19:13:53.059Z,4.03
2017-10-12T19:16:22.889Z,4.90
2017-10-12T19:18:53.227Z,3.20
2017-10-12T19:21:23.317Z,5.43
2017-10-12T19:23:53.162Z,2.80
2017-10-12T19:26:22.971Z,4.00
2017-10-12T19:28:52.833Z,3.70
2017-10-12T19:31:22.703Z,4.10
2017-10-12T19:33:52.808Z,3.80
2017-10-12T19:36:22.631Z,4.07
2017-10-12T19:38:52.432Z,4.20
2017-10-12T19:41:23.250Z,3.70
2017-10-12T19:43:53.084Z,3.60
2017-10-12T19:46:23.190Z,3.10
2017-10-12T19:48:53.046Z,4.13
2017-10-12T19:53:53.111Z,3.37
2017-10-12T19:56:23.285Z,3.77
2017-10-12T19:59:08.165Z,3.10
2017-10-12T20:01:23.973Z,3.93
2017-10-12T20:03:54.066Z,3.67
2017-10-12T20:06:24.213Z,5.23
2017-10-12T20:08:54.914Z,3.33
2017-10-12T20:11:25.272Z,3.80
2017-10-12T20:16:25.892Z,3.33
2017-10-12T20:18:55.701Z,3.57
2017-10-12T20:21:25.797Z,3.07
2017-10-12T20:28:55.573Z,4.40
2017-10-12T20:31:25.390Z,3.07
2017-10-12T20:33:55.751Z,3.20
2017-10-12T20:36:25.572Z,3.30
2017-10-12T20:38:55.708Z,3.10
2017-10-12T20:41:25.526Z,3.23
2017-10-12T20:43:55.729Z,3.10
2017-10-12T20:46:25.535Z,2.43
2017-10-12T20:48:55.623Z,3.63
2017-10-12T20:51:25.433Z,2.93
2017-10-12T20:53:55.256Z,3.43
2017-10-12T20:56:25.113Z,4.07
2017-10-12T20:58:54.933Z,3.90
2017-10-12T21:01:24.800Z,3.17
2017-10-12T21:03:54.638Z,3.20
2017-10-12T21:06:24.486Z,3.03
2017-10-12T21:08:54.399Z,2.37
2017-10-12T21:11:24.234Z,3.80
2017-10-12T21:13:54.015Z,3.53
2017-10-12T21:16:23.860Z,2.93
2017-10-12T21:18:54.069Z,4.03
2017-10-12T21:21:23.893Z,3.50
2017-10-12T21:23:53.689Z,3.60
2017-10-12T21:26:23.491Z,3.70
2017-10-12T21:28:53.301Z,3.30
2017-10-12T21:31:23.153Z,4.37
2017-10-12T21:33:52.945Z,3.17
2017-10-12T21:36:22.786Z,2.90
2017-10-12T21:38:52.577Z,3.17
2017-10-12T21:41:22.395Z,2.73
2017-10-12T21:43:53.070Z,3.30
2017-10-12T21:46:22.881Z,3.50
2017-10-12T21:48:52.719Z,3.33
2017-10-12T21:51:22.541Z,3.23
2017-10-12T21:53:52.358Z,2.97
2017-10-12T21:56:22.176Z,3.60
2017-10-12T21:58:52.022Z,2.77
2017-10-12T22:01:21.813Z,4.00
2017-10-12T22:03:52.534Z,3.13
2017-10-12T22:06:22.353Z,3.43
2017-10-12T22:08:52.164Z,3.23
2017-10-12T22:11:21.994Z,3.20
2017-10-12T22:13:51.796Z,2.90
2017-10-12T22:16:21.636Z,2.73
2017-10-12T22:18:51.452Z,2.17
2017-10-12T22:21:21.247Z,3.17
2017-10-12T22:23:51.065Z,2.60
2017-10-12T22:26:21.124Z,3.70
2017-10-12T22:28:50.944Z,2.83
2017-10-12T22:31:21.703Z,2.43
2017-10-12T22:33:52.356Z,3.00
2017-10-12T22:36:22.451Z,2.50
2017-10-12T22:38:52.282Z,4.03
2017-10-12T22:41:22.088Z,3.10
2017-10-12T22:43:51.909Z,3.53
2017-10-12T22:46:22.624Z,2.60
2017-10-12T22:48:52.759Z,2.80
2017-10-12T22:51:22.543Z,3.27
2017-10-12T22:53:52.665Z,2.50
2017-10-12T22:56:22.457Z,2.30
2017-10-12T22:58:52.633Z,3.00
2017-10-12T23:01:22.423Z,2.53
2017-10-12T23:03:52.292Z,2.83
2017-10-12T23:06:22.381Z,2.53
2017-10-12T23:08:52.236Z,2.67
2017-10-12T23:11:22.041Z,2.33
2017-10-12T23:13:51.846Z,2.80
2017-10-12T23:16:22.457Z,3.23
2017-10-12T23:18:52.650Z,3.70
2017-10-12T23:21:22.488Z,2.00
2017-10-12T23:23:53.399Z,3.07
2017-10-12T23:26:23.169Z,2.63
2017-10-12T23:28:53.281Z,4.33
2017-10-12T23:31:23.109Z,3.40
2017-10-12T23:33:53.266Z,4.47
2017-10-12T23:36:23.051Z,2.90
2017-10-12T23:38:53.181Z,2.30
2017-10-12T23:41:22.968Z,2.80
2017-10-12T23:43:53.127Z,3.83
2017-10-12T23:46:22.921Z,4.07
2017-10-12T23:48:53.060Z,2.60
2017-10-12T23:51:22.861Z,3.00
2017-10-12T23:53:52.708Z,2.90
2017-10-12T23:56:22.817Z,2.23
2017-10-12T23:58:52.606Z,3.13
